Time;durP1;ratioP1;P1;durP2;ratioP2;P2;SDS_P1;SDS_P2;PMS_P1;PMS_P2;Temp;Humidity;BMP_temperature;BMP_pressure;BME280_temperature;BME280_humidity;BME280_pressure;Samples;Min_cycle;Max_cycle;Signal;HPM_P1;HPM_P2
2022/10/16 00:01:27;;;;;;;5.33;4.30;;;17.30;99.90;;;;;;10333529;28;20253;-79
2022/10/16 00:06:32;;;;;;;6.13;4.50;;;17.30;99.90;;;;;;10363634;28;20273;-78
2022/10/16 00:11:38;;;;;;;5.10;4.60;;;17.30;99.90;;;;;;10350788;28;20270;-82
2022/10/16 00:16:44;;;;;;;4.57;4.17;;;17.30;99.90;;;;;;10363963;28;20221;-82
2022/10/16 00:21:46;;;;;;;4.83;4.17;;;17.20;99.90;;;;;;10352150;28;20224;-79
2022/10/16 00:26:51;;;;;;;4.50;4.30;;;17.20;99.90;;;;;;10366327;28;21015;-79
2022/10/16 00:31:53;;;;;;;4.73;4.37;;;17.20;99.90;;;;;;10350168;28;20211;-80
2022/10/16 00:36:55;;;;;;;4.43;3.97;;;17.10;99.90;;;;;;10316318;28;20233;-79
2022/10/16 00:41:58;;;;;;;6.43;4.20;;;17.10;99.90;;;;;;10342810;28;20301;-78
2022/10/16 00:47:00;;;;;;;4.30;4.10;;;17.00;99.90;;;;;;10346090;28;20691;-79
2022/10/16 00:52:03;;;;;;;4.93;4.43;;;17.00;99.90;;;;;;10326336;28;20227;-79
2022/10/16 00:57:08;;;;;;;4.57;4.13;;;17.00;99.90;;;;;;10359022;28;20199;-79
2022/10/16 01:02:13;;;;;;;4.10;3.80;;;17.00;99.90;;;;;;10342086;28;20219;-80
2022/10/16 01:07:24;;;;;;;8.77;4.40;;;17.00;99.90;;;;;;10343793;28;20291;-79
2022/10/16 01:12:37;;;;;;;4.33;4.00;;;17.00;99.90;;;;;;10336681;28;20631;-79
2022/10/16 01:17:45;;;;;;;4.63;3.97;;;17.00;99.90;;;;;;10332284;28;20206;-79
2022/10/16 01:22:58;;;;;;;5.70;4.93;;;17.00;99.90;;;;;;10352464;28;20195;-80
2022/10/16 01:28:05;;;;;;;5.93;5.00;;;17.00;99.90;;;;;;10345081;28;20222;-79
2022/10/16 01:33:15;;;;;;;5.57;4.97;;;17.00;99.90;;;;;;10349012;28;20218;-79
2022/10/16 01:38:21;;;;;;;5.97;5.67;;;17.00;99.90;;;;;;10325166;28;20219;-78
2022/10/16 01:43:29;;;;;;;5.60;5.13;;;16.90;99.90;;;;;;10343888;28;20274;-78
2022/10/16 01:48:33;;;;;;;8.70;5.67;;;16.90;99.90;;;;;;10356674;28;20302;-77
2022/10/16 01:53:36;;;;;;;5.70;5.20;;;16.90;99.90;;;;;;10331029;28;20730;-77
2022/10/16 01:58:44;;;;;;;5.70;5.40;;;17.00;99.90;;;;;;10350876;28;20214;-78
2022/10/16 02:03:50;;;;;;;5.67;5.37;;;17.00;99.90;;;;;;10349042;28;20253;-80
2022/10/16 02:08:52;;;;;;;6.50;5.87;;;17.00;99.90;;;;;;10357500;28;20253;-80
2022/10/16 02:14:02;;;;;;;7.53;4.80;;;17.00;99.90;;;;;;10379101;28;20223;-77
2022/10/16 02:19:05;;;;;;;5.47;5.10;;;17.00;99.90;;;;;;10341377;28;20215;-77
2022/10/16 02:24:14;;;;;;;4.93;4.57;;;17.10;99.90;;;;;;10362338;28;20194;-80
2022/10/16 02:29:22;;;;;;;5.23;4.83;;;17.10;99.90;;;;;;10346745;28;20684;-80
2022/10/16 02:34:26;;;;;;;6.67;5.03;;;17.10;99.90;;;;;;10354803;28;20226;-79
2022/10/16 02:39:30;;;;;;;7.60;5.30;;;17.10;99.90;;;;;;10379299;28;20293;-80
2022/10/16 02:44:33;;;;;;;5.23;4.93;;;17.10;99.90;;;;;;10349458;28;20303;-78
2022/10/16 02:49:35;;;;;;;5.47;5.17;;;17.10;99.90;;;;;;10355683;28;20246;-79
2022/10/16 02:54:37;;;;;;;6.23;5.20;;;17.10;99.90;;;;;;10352177;28;20298;-79
2022/10/16 02:59:41;;;;;;;5.90;5.60;;;17.10;99.90;;;;;;10334120;28;20222;-78
2022/10/16 03:04:46;;;;;;;5.67;5.27;;;17.10;99.90;;;;;;10333610;28;20222;-79
2022/10/16 03:09:48;;;;;;;5.73;5.40;;;17.10;99.90;;;;;;10334421;28;20598;-79
2022/10/16 03:14:51;;;;;;;5.40;5.07;;;17.00;99.90;;;;;;10374510;28;20241;-76
2022/10/16 03:19:53;;;;;;;6.40;5.90;;;17.00;99.90;;;;;;10378543;28;20695;-80
2022/10/16 03:24:55;;;;;;;5.33;5.13;;;17.00;99.90;;;;;;10380364;28;20194;-78
2022/10/16 03:29:59;;;;;;;6.20;5.90;;;17.00;99.90;;;;;;10323068;28;20563;-78
2022/10/16 03:35:01;;;;;;;6.20;5.60;;;17.00;99.90;;;;;;10363472;28;20214;-80
2022/10/16 03:40:03;;;;;;;6.33;5.93;;;17.00;99.90;;;;;;10351866;28;20242;-79
2022/10/16 03:45:07;;;;;;;7.37;5.50;;;16.90;99.90;;;;;;10367614;28;20203;-77
2022/10/16 03:50:10;;;;;;;5.80;5.40;;;16.90;99.90;;;;;;10375061;28;20861;-77
2022/10/16 03:55:12;;;;;;;6.67;6.07;;;16.90;99.90;;;;;;10372738;28;20218;-77
2022/10/16 04:00:15;;;;;;;7.57;5.87;;;16.90;99.90;;;;;;10345454;28;20294;-79
2022/10/16 04:05:17;;;;;;;10.40;6.20;;;16.80;99.90;;;;;;10332575;28;20562;-78
2022/10/16 04:10:19;;;;;;;6.10;5.50;;;16.80;99.90;;;;;;10332132;28;20249;-79
2022/10/16 04:15:23;;;;;;;6.03;5.53;;;16.80;99.90;;;;;;10335339;28;20207;-78
2022/10/16 04:20:25;;;;;;;6.63;6.17;;;16.80;99.90;;;;;;10332131;28;20700;-78
2022/10/16 04:25:27;;;;;;;5.63;5.13;;;16.80;99.90;;;;;;10332379;28;20211;-78
2022/10/16 04:30:31;;;;;;;5.20;5.00;;;16.70;99.90;;;;;;10331929;28;20218;-79
2022/10/16 04:35:33;;;;;;;5.83;5.33;;;16.70;99.90;;;;;;10355591;28;20750;-79
2022/10/16 04:40:36;;;;;;;6.00;4.93;;;16.70;99.90;;;;;;10368364;28;20246;-78
2022/10/16 04:45:39;;;;;;;5.00;4.60;;;16.70;99.90;;;;;;10331888;28;20612;-77
2022/10/16 04:50:42;;;;;;;5.50;5.10;;;16.60;99.90;;;;;;10361884;28;20702;-79
2022/10/16 04:55:44;;;;;;;6.23;5.93;;;16.60;99.90;;;;;;10362958;28;20218;-79
2022/10/16 05:00:47;;;;;;;6.00;5.17;;;16.60;99.90;;;;;;10353973;28;20229;-79
2022/10/16 05:05:50;;;;;;;5.13;4.83;;;16.60;99.90;;;;;;10351921;28;20616;-79
2022/10/16 05:10:52;;;;;;;6.80;5.47;;;16.60;99.90;;;;;;10361532;28;20314;-79
2022/10/16 05:15:55;;;;;;;5.83;5.50;;;16.70;99.90;;;;;;10354012;28;20691;-79
2022/10/16 05:20:57;;;;;;;7.53;5.80;;;16.70;99.90;;;;;;10332537;28;20211;-78
2022/10/16 05:26:00;;;;;;;6.13;5.63;;;16.60;99.90;;;;;;10302201;28;20184;-79
2022/10/16 05:31:07;;;;;;;5.47;4.97;;;16.60;99.90;;;;;;10273048;28;20250;-77
2022/10/16 05:36:10;;;;;;;6.03;5.63;;;16.60;99.90;;;;;;10338004;28;20332;-79
2022/10/16 05:41:12;;;;;;;6.63;6.10;;;16.50;99.90;;;;;;10371707;28;20248;-79
2022/10/16 05:46:16;;;;;;;8.17;6.63;;;16.50;99.90;;;;;;10351097;28;20199;-79
2022/10/16 05:51:18;;;;;;;6.13;5.63;;;16.50;99.90;;;;;;10358900;28;20222;-77
2022/10/16 05:56:20;;;;;;;6.37;5.60;;;16.50;99.90;;;;;;10371302;28;20206;-78
2022/10/16 06:01:24;;;;;;;5.60;5.13;;;16.50;99.90;;;;;;10370601;28;20699;-78
2022/10/16 06:06:27;;;;;;;39.17;31.87;;;16.50;99.90;;;;;;10368618;28;20221;-77
2022/10/16 06:11:32;;;;;;;26.20;18.70;;;16.50;99.90;;;;;;10419297;23;20706;-81
2022/10/16 06:16:37;;;;;;;62.60;46.70;;;16.60;99.90;;;;;;10420602;28;20272;-81
2022/10/16 06:21:39;;;;;;;29.97;26.80;;;16.60;99.90;;;;;;10427225;28;20217;-81
2022/10/16 06:26:41;;;;;;;46.70;41.60;;;16.60;99.90;;;;;;10406637;28;20195;-80
2022/10/16 06:31:44;;;;;;;27.67;24.43;;;16.60;99.90;;;;;;10385115;28;20222;-80
2022/10/16 06:36:46;;;;;;;32.80;29.60;;;16.70;99.90;;;;;;10385946;28;20229;-79
2022/10/16 06:41:48;;;;;;;19.60;17.90;;;16.70;99.90;;;;;;10381772;28;20306;-82
2022/10/16 06:46:52;;;;;;;12.90;11.70;;;16.70;99.90;;;;;;10373407;28;20197;-79
2022/10/16 06:51:54;;;;;;;13.70;12.60;;;16.80;99.90;;;;;;10402357;28;20209;-79
2022/10/16 06:56:56;;;;;;;14.43;11.93;;;16.90;99.90;;;;;;10420256;28;20220;-79
2022/10/16 07:02:34;;;;;;;14.13;11.13;;;16.90;99.90;;;;;;10388987;28;20210;-85
2022/10/16 07:07:37;;;;;;;17.47;12.33;;;17.00;99.90;;;;;;10380586;28;20257;-82
2022/10/16 07:12:39;;;;;;;6.87;6.33;;;17.00;99.90;;;;;;10349097;28;20586;-82
2022/10/16 07:17:41;;;;;;;10.57;9.47;;;17.10;99.90;;;;;;10383732;28;20222;-81
2022/10/16 07:22:45;;;;;;;21.53;13.97;;;17.20;99.90;;;;;;10378211;28;20210;-82
2022/10/16 07:27:47;;;;;;;16.17;11.93;;;17.30;99.90;;;;;;10384258;28;20782;-81
2022/10/16 07:32:49;;;;;;;10.83;9.23;;;17.40;99.90;;;;;;10380500;28;20198;-79
2022/10/16 07:37:52;;;;;;;10.13;8.93;;;17.40;99.90;;;;;;10363818;28;20279;-82
2022/10/16 07:42:55;;;;;;;9.13;8.23;;;17.50;99.90;;;;;;10381469;28;20186;-80
2022/10/16 07:47:57;;;;;;;11.03;7.63;;;17.50;99.90;;;;;;10363796;28;20220;-79
2022/10/16 07:53:00;;;;;;;9.13;8.10;;;17.50;99.90;;;;;;10379489;28;20210;-79
2022/10/16 07:58:02;;;;;;;13.23;9.20;;;17.60;99.90;;;;;;10384034;28;20201;-78
2022/10/16 08:03:05;;;;;;;11.80;8.47;;;17.70;99.90;;;;;;10383557;28;20273;-79
2022/10/16 08:08:13;;;;;;;9.63;8.60;;;17.70;99.90;;;;;;10381711;28;20238;-80
2022/10/16 08:13:15;;;;;;;9.17;8.30;;;17.80;99.90;;;;;;10382610;28;20211;-81
2022/10/16 08:18:18;;;;;;;6.93;6.23;;;17.90;99.90;;;;;;10381973;28;20218;-81
2022/10/16 08:23:21;;;;;;;7.03;6.40;;;18.00;99.90;;;;;;10385077;28;20206;-80
2022/10/16 08:28:24;;;;;;;5.13;4.60;;;18.10;99.90;;;;;;10406634;28;20230;-81
2022/10/16 08:33:26;;;;;;;5.03;4.43;;;18.30;99.90;;;;;;10389617;28;20264;-81
2022/10/16 08:38:30;;;;;;;9.93;5.10;;;18.40;99.90;;;;;;10387902;28;20223;-81
2022/10/16 08:43:45;;;;;;;5.70;5.17;;;18.60;99.90;;;;;;10386549;28;20245;-81
2022/10/16 08:48:49;;;;;;;5.57;5.10;;;18.80;99.90;;;;;;10378039;28;20459;-81
2022/10/16 08:53:56;;;;;;;4.67;4.23;;;18.90;99.90;;;;;;10400528;28;20268;-80
2022/10/16 08:59:00;;;;;;;9.93;6.80;;;18.80;99.90;;;;;;10395531;28;20222;-81
2022/10/16 09:04:20;;;;;;;5.20;4.63;;;18.90;99.90;;;;;;10389676;28;20289;-82
2022/10/16 09:09:40;;;;;;;4.57;3.87;;;18.90;99.90;;;;;;10395646;28;20309;-79
2022/10/16 09:15:02;;;;;;;4.80;3.90;;;19.00;99.90;;;;;;10388313;28;20294;-80
2022/10/16 09:20:18;;;;;;;5.63;5.13;;;19.10;99.90;;;;;;10410806;28;20228;-82
2022/10/16 09:25:23;;;;;;;5.27;4.97;;;19.20;99.90;;;;;;10404643;28;20261;-80
2022/10/16 09:30:29;;;;;;;3.70;3.50;;;19.40;99.90;;;;;;10400214;28;20226;-78
2022/10/16 09:35:37;;;;;;;4.37;4.17;;;19.50;99.90;;;;;;10398292;28;20225;-80
2022/10/16 09:40:43;;;;;;;3.40;3.30;;;19.50;99.90;;;;;;10392606;28;20246;-79
2022/10/16 09:45:55;;;;;;;4.20;4.00;;;19.50;99.90;;;;;;10385388;28;20293;-80
2022/10/16 09:50:58;;;;;;;4.43;3.87;;;19.50;99.90;;;;;;10393895;28;20305;-81
2022/10/16 09:56:03;;;;;;;4.37;4.03;;;19.50;99.90;;;;;;10388091;28;20228;-81
2022/10/16 10:01:06;;;;;;;4.27;3.90;;;19.60;99.90;;;;;;10402800;28;20226;-81
2022/10/16 10:06:23;;;;;;;6.10;3.90;;;19.70;99.90;;;;;;10412978;28;20209;-80
2022/10/16 10:11:49;;;;;;;3.60;3.40;;;19.60;99.90;;;;;;10420415;28;20277;-81
2022/10/16 10:16:53;;;;;;;4.70;4.40;;;19.70;99.90;;;;;;10388049;28;20214;-81
2022/10/16 10:21:55;;;;;;;4.00;3.60;;;19.80;99.90;;;;;;10386681;28;20225;-80
2022/10/16 10:27:08;;;;;;;5.57;5.20;;;19.90;99.90;;;;;;10395983;28;20190;-80
2022/10/16 10:32:22;;;;;;;4.80;4.50;;;19.90;99.90;;;;;;10393246;28;20222;-80
2022/10/16 10:37:43;;;;;;;5.17;4.87;;;19.90;99.90;;;;;;10400161;28;20210;-83
2022/10/16 10:42:54;;;;;;;9.03;8.20;;;19.80;99.90;;;;;;10385299;28;20226;-82
2022/10/16 10:48:25;;;;;;;6.40;6.00;;;19.70;99.90;;;;;;10366939;28;20211;-79
2022/10/16 10:53:38;;;;;;;4.90;4.60;;;19.80;99.90;;;;;;10383670;28;20198;-82
2022/10/16 10:59:09;;;;;;;6.00;4.80;;;19.80;99.90;;;;;;10393996;28;20222;-82
2022/10/16 11:04:56;;;;;;;4.63;4.33;;;19.70;99.90;;;;;;10405727;28;20552;-82
2022/10/16 11:10:03;;;;;;;5.17;4.77;;;19.70;99.90;;;;;;10395492;28;20291;-80
2022/10/16 11:15:15;;;;;;;11.07;10.27;;;19.60;99.90;;;;;;10406570;28;20222;-80
2022/10/16 11:20:21;;;;;;;5.10;4.80;;;19.50;99.90;;;;;;10333794;28;20226;-82
2022/10/16 11:25:29;;;;;;;7.80;7.23;;;19.30;99.90;;;;;;10382941;28;20241;-81
2022/10/16 11:30:37;;;;;;;7.70;7.20;;;19.30;99.90;;;;;;10386822;28;20297;-81
2022/10/16 11:35:45;;;;;;;5.80;5.30;;;19.30;99.90;;;;;;10384222;28;20222;-81
2022/10/16 11:40:51;;;;;;;5.23;4.60;;;19.20;99.90;;;;;;10370688;28;20762;-79
2022/10/16 11:45:56;;;;;;;5.33;5.03;;;19.30;99.90;;;;;;10375985;28;20203;-79
2022/10/16 11:51:06;;;;;;;7.00;5.77;;;19.30;99.90;;;;;;10400666;28;20227;-80
2022/10/16 11:56:08;;;;;;;4.80;4.47;;;19.30;99.90;;;;;;10395489;28;20222;-80
2022/10/16 12:01:19;;;;;;;4.33;4.07;;;19.30;99.90;;;;;;10411034;28;20214;-80
2022/10/16 12:06:31;;;;;;;3.80;3.60;;;19.40;99.90;;;;;;10391419;28;20573;-79
2022/10/16 12:11:36;;;;;;;3.40;3.30;;;19.50;99.90;;;;;;10399012;23;20288;-79
2022/10/16 12:16:51;;;;;;;4.00;3.80;;;19.50;99.90;;;;;;10374268;28;20574;-79
2022/10/16 12:21:57;;;;;;;3.43;3.13;;;19.60;99.90;;;;;;10347099;28;20250;-78
2022/10/16 12:27:00;;;;;;;4.87;4.27;;;19.70;99.90;;;;;;10339112;28;20199;-78
2022/10/16 12:32:05;;;;;;;3.67;3.47;;;19.80;99.90;;;;;;10358026;28;20245;-79
2022/10/16 12:37:15;;;;;;;4.20;3.90;;;19.80;99.90;;;;;;10354175;28;20702;-79
2022/10/16 12:42:34;;;;;;;4.43;3.50;;;19.90;99.90;;;;;;10335295;28;20231;-78
2022/10/16 12:47:49;;;;;;;4.87;4.40;;;19.80;99.90;;;;;;10336373;28;20209;-79
2022/10/16 12:52:51;;;;;;;3.93;3.33;;;19.80;99.90;;;;;;10335747;28;20222;-79
2022/10/16 12:58:10;;;;;;;3.80;3.50;;;19.80;99.90;;;;;;10336149;28;20326;-79
2022/10/16 13:03:49;;;;;;;4.70;4.50;;;19.90;99.90;;;;;;10332306;28;20203;-78
2022/10/16 13:09:14;;;;;;;4.33;4.03;;;19.90;99.90;;;;;;10328757;28;20238;-78
2022/10/16 13:14:30;;;;;;;4.10;3.77;;;19.80;99.90;;;;;;10327307;28;20746;-78
2022/10/16 13:19:39;;;;;;;5.40;4.07;;;19.70;99.90;;;;;;10329882;28;20634;-78
2022/10/16 13:24:53;;;;;;;5.27;4.97;;;19.70;99.90;;;;;;10331533;28;20249;-78
2022/10/16 13:30:03;;;;;;;9.43;4.33;;;19.70;99.90;;;;;;10330845;28;20219;-78
2022/10/16 13:35:20;;;;;;;6.00;3.23;;;19.80;99.90;;;;;;10326622;28;20282;-77
2022/10/16 13:40:24;;;;;;;4.70;4.40;;;19.80;99.90;;;;;;10332893;28;20352;-77
2022/10/16 13:45:26;;;;;;;5.57;4.53;;;19.80;99.90;;;;;;10327170;28;20237;-78
2022/10/16 13:50:37;;;;;;;12.03;5.20;;;19.90;99.90;;;;;;10333858;28;20227;-78
2022/10/16 13:55:39;;;;;;;4.10;3.67;;;20.00;99.90;;;;;;10328745;28;20226;-77
2022/10/16 14:00:42;;;;;;;3.80;3.50;;;20.30;99.90;;;;;;10326797;28;20229;-77
2022/10/16 14:05:49;;;;;;;4.03;3.83;;;20.40;99.90;;;;;;10326721;28;20188;-77
2022/10/16 14:10:54;;;;;;;4.13;3.80;;;20.40;99.90;;;;;;10343025;28;20239;-77
2022/10/16 14:15:58;;;;;;;6.40;3.77;;;20.40;99.90;;;;;;10328312;28;20702;-77
2022/10/16 14:21:06;;;;;;;3.90;3.50;;;20.40;99.90;;;;;;10327706;28;20219;-77
2022/10/16 14:26:20;;;;;;;5.00;4.30;;;20.50;99.90;;;;;;10327493;28;20549;-78
2022/10/16 14:31:28;;;;;;;3.40;3.20;;;20.60;99.90;;;;;;10344810;28;20219;-77
2022/10/16 14:36:34;;;;;;;5.13;3.60;;;20.60;99.90;;;;;;10347885;28;20227;-77
2022/10/16 14:41:45;;;;;;;5.93;4.10;;;20.60;99.90;;;;;;10334290;28;20655;-77
2022/10/16 14:46:48;;;;;;;4.77;4.30;;;20.60;99.90;;;;;;10349721;28;20203;-79
2022/10/16 14:51:52;;;;;;;6.87;3.90;;;20.50;99.90;;;;;;10339223;28;20246;-79
2022/10/16 14:56:57;;;;;;;7.93;4.43;;;20.50;99.90;;;;;;10341794;28;20310;-80
2022/10/16 15:01:59;;;;;;;4.07;3.77;;;20.50;99.90;;;;;;10344856;28;20227;-79
2022/10/16 15:07:03;;;;;;;5.93;4.17;;;20.50;99.90;;;;;;10343472;28;20225;-79
2022/10/16 15:12:05;;;;;;;6.43;4.03;;;20.50;99.90;;;;;;10341965;28;20318;-78
2022/10/16 15:17:09;;;;;;;12.33;4.30;;;20.40;99.90;;;;;;10341618;28;20258;-78
2022/10/16 15:22:13;;;;;;;5.00;4.60;;;20.40;99.90;;;;;;10356225;28;20643;-79
2022/10/16 15:27:15;;;;;;;5.93;4.70;;;20.50;99.90;;;;;;10354969;28;20664;-79
2022/10/16 15:32:17;;;;;;;5.57;3.70;;;20.50;99.90;;;;;;10345573;28;20587;-77
2022/10/16 15:37:20;;;;;;;4.60;3.97;;;20.40;99.90;;;;;;10332694;28;20215;-77
2022/10/16 15:42:22;;;;;;;8.10;5.07;;;20.40;99.90;;;;;;10340642;28;20250;-80
2022/10/16 15:47:25;;;;;;;7.37;4.63;;;20.30;99.90;;;;;;10338581;28;20282;-79
2022/10/16 15:52:28;;;;;;;4.60;4.23;;;20.20;99.90;;;;;;10360648;28;20780;-79
2022/10/16 15:57:30;;;;;;;7.33;4.53;;;20.10;99.90;;;;;;10342384;28;20663;-79
2022/10/16 16:02:32;;;;;;;5.20;4.70;;;20.10;99.90;;;;;;10336717;28;20321;-78
2022/10/16 16:07:36;;;;;;;11.73;4.23;;;20.00;99.90;;;;;;10348920;28;20246;-78
2022/10/16 16:12:41;;;;;;;5.27;4.77;;;19.90;99.90;;;;;;10338473;28;20238;-78
2022/10/16 16:17:44;;;;;;;5.63;5.33;;;19.80;99.90;;;;;;10335194;28;20307;-78
2022/10/16 16:22:48;;;;;;;8.83;5.53;;;19.70;99.90;;;;;;10334143;28;20246;-78
2022/10/16 16:27:50;;;;;;;6.60;5.17;;;19.50;99.90;;;;;;10336362;28;20574;-77
2022/10/16 16:32:53;;;;;;;6.67;5.07;;;19.40;99.90;;;;;;10334004;28;20223;-77
2022/10/16 16:37:57;;;;;;;8.03;4.67;;;19.30;99.90;;;;;;10331547;28;20231;-77
2022/10/16 16:42:59;;;;;;;6.33;5.70;;;19.20;99.90;;;;;;10332750;28;20595;-77
2022/10/16 16:48:01;;;;;;;8.07;5.60;;;19.10;99.90;;;;;;10331991;28;20195;-78
2022/10/16 16:53:05;;;;;;;5.67;5.10;;;19.10;99.90;;;;;;10333485;28;20224;-80
2022/10/16 16:58:07;;;;;;;6.90;5.10;;;19.00;99.90;;;;;;10326563;28;20229;-78
2022/10/16 17:03:10;;;;;;;8.67;5.70;;;18.90;99.90;;;;;;10302841;28;20196;-77
2022/10/16 17:08:16;;;;;;;6.40;5.90;;;18.90;99.90;;;;;;10313140;28;20202;-77
2022/10/16 17:13:18;;;;;;;12.40;5.60;;;18.80;99.90;;;;;;10330400;28;20575;-77
2022/10/16 17:18:21;;;;;;;9.50;4.80;;;18.80;99.90;;;;;;10346100;28;20744;-77
2022/10/16 17:23:25;;;;;;;9.50;5.80;;;18.70;99.90;;;;;;10329794;28;20617;-78
2022/10/16 17:28:29;;;;;;;7.23;5.67;;;18.70;99.90;;;;;;10330636;28;20295;-77
2022/10/16 17:33:31;;;;;;;7.37;4.83;;;18.60;99.90;;;;;;10330934;28;20230;-78
2022/10/16 17:38:35;;;;;;;6.37;5.47;;;18.50;99.90;;;;;;10330262;28;20227;-77
2022/10/16 17:43:38;;;;;;;6.37;5.60;;;18.50;99.90;;;;;;10329735;28;20223;-78
2022/10/16 17:48:45;;;;;;;11.70;5.27;;;18.40;99.90;;;;;;10345033;28;20605;-78
2022/10/16 17:53:50;;;;;;;14.87;6.70;;;18.30;99.90;;;;;;10345197;28;20199;-77
2022/10/16 17:58:54;;;;;;;14.63;6.00;;;18.30;99.90;;;;;;10329619;28;20245;-78
2022/10/16 18:03:59;;;;;;;8.97;5.47;;;18.20;99.90;;;;;;10329915;28;20200;-77
2022/10/16 18:09:03;;;;;;;10.90;6.33;;;18.20;99.90;;;;;;10334908;28;20219;-77
2022/10/16 18:14:06;;;;;;;8.30;6.17;;;18.10;99.90;;;;;;10336626;28;20195;-77
2022/10/16 18:19:09;;;;;;;8.70;5.97;;;18.10;99.90;;;;;;10336702;28;20711;-77
2022/10/16 18:24:12;;;;;;;8.17;6.77;;;18.00;99.90;;;;;;10336668;28;20234;-77
2022/10/16 18:29:14;;;;;;;15.53;6.23;;;18.00;99.90;;;;;;10338468;28;20211;-77
2022/10/16 18:34:17;;;;;;;7.63;6.87;;;17.90;99.90;;;;;;10335704;28;20227;-78
2022/10/16 18:39:22;;;;;;;9.50;8.40;;;17.80;99.90;;;;;;10335321;28;20215;-77
2022/10/16 18:44:24;;;;;;;9.60;8.47;;;17.80;99.90;;;;;;10335232;28;20250;-77
2022/10/16 18:49:27;;;;;;;9.03;7.67;;;17.80;99.90;;;;;;10334509;28;20219;-77
2022/10/16 18:54:30;;;;;;;8.17;7.33;;;17.70;99.90;;;;;;10335274;28;20215;-78
2022/10/16 18:59:32;;;;;;;9.87;7.43;;;17.70;99.90;;;;;;10334865;28;20227;-76
2022/10/16 19:04:35;;;;;;;10.37;7.27;;;17.70;99.90;;;;;;10334848;28;20253;-76
2022/10/16 19:09:38;;;;;;;7.80;7.10;;;17.60;99.90;;;;;;10330498;28;20302;-77
2022/10/16 19:14:41;;;;;;;10.97;7.10;;;17.60;99.90;;;;;;10348883;28;20285;-76
2022/10/16 19:19:43;;;;;;;12.23;6.80;;;17.60;99.90;;;;;;10332756;28;20253;-77
2022/10/16 19:24:46;;;;;;;8.23;7.40;;;17.50;99.90;;;;;;10333103;28;20580;-77
2022/10/16 19:29:48;;;;;;;11.73;10.73;;;17.50;99.90;;;;;;10333871;28;20617;-78
2022/10/16 19:34:50;;;;;;;7.97;6.53;;;17.50;99.90;;;;;;10333549;28;20199;-77
2022/10/16 19:39:54;;;;;;;8.10;7.20;;;17.40;99.90;;;;;;10333425;28;20253;-76
2022/10/16 19:44:56;;;;;;;11.40;6.80;;;17.40;99.90;;;;;;10333140;28;20668;-77
2022/10/16 19:49:58;;;;;;;10.00;6.70;;;17.40;99.90;;;;;;10332957;28;20604;-77
2022/10/16 19:55:01;;;;;;;11.00;7.57;;;17.40;99.90;;;;;;10332976;28;20203;-77
2022/10/16 20:00:04;;;;;;;9.90;7.63;;;17.30;99.90;;;;;;10347727;28;20227;-76
2022/10/16 20:05:09;;;;;;;9.80;6.73;;;17.30;99.90;;;;;;10332825;28;20198;-77
2022/10/16 20:10:13;;;;;;;20.30;16.37;;;17.30;99.90;;;;;;10332241;28;20718;-77
2022/10/16 20:15:15;;;;;;;10.00;8.97;;;17.30;99.90;;;;;;10330664;28;20694;-77
2022/10/16 20:20:17;;;;;;;53.60;32.47;;;17.20;99.90;;;;;;10331427;28;20293;-77
2022/10/16 20:25:20;;;;;;;73.83;51.27;;;17.20;99.90;;;;;;10331579;28;20195;-77
2022/10/16 20:30:22;;;;;;;8.30;7.57;;;17.20;99.90;;;;;;10330873;28;20264;-79
2022/10/16 20:35:24;;;;;;;7.37;6.47;;;17.20;99.90;;;;;;10322262;28;20630;-77
2022/10/16 20:40:28;;;;;;;8.90;6.47;;;17.20;99.90;;;;;;10335695;28;20237;-76
2022/10/16 20:45:30;;;;;;;11.60;6.57;;;17.10;99.90;;;;;;10337642;28;20869;-78
2022/10/16 20:50:33;;;;;;;7.63;6.80;;;17.10;99.90;;;;;;10329716;28;20238;-77
2022/10/16 20:55:37;;;;;;;9.27;7.50;;;17.10;99.90;;;;;;10329871;28;20207;-78
2022/10/16 21:00:40;;;;;;;6.47;5.87;;;17.10;99.90;;;;;;10329838;28;20223;-76
2022/10/16 21:05:42;;;;;;;10.33;5.93;;;17.00;99.90;;;;;;10329247;28;20211;-76
2022/10/16 21:10:45;;;;;;;7.13;6.23;;;17.00;99.90;;;;;;10329126;28;20222;-76
2022/10/16 21:15:47;;;;;;;6.10;5.50;;;16.90;99.90;;;;;;10328031;28;20247;-77
2022/10/16 21:20:53;;;;;;;9.43;5.73;;;16.90;99.90;;;;;;10326944;28;20234;-76
2022/10/16 21:25:56;;;;;;;8.17;6.70;;;16.90;99.90;;;;;;10329216;28;20203;-78
2022/10/16 21:30:58;;;;;;;8.13;5.23;;;16.80;99.90;;;;;;10329319;28;20593;-76
2022/10/16 21:36:01;;;;;;;6.30;5.00;;;16.80;99.90;;;;;;10328765;28;20250;-76
2022/10/16 21:41:12;;;;;;;6.57;5.97;;;16.80;99.90;;;;;;10328213;28;20218;-77
2022/10/16 21:46:15;;;;;;;9.47;5.93;;;16.70;99.90;;;;;;10327379;28;20237;-77
2022/10/16 21:51:17;;;;;;;22.57;7.90;;;16.70;99.90;;;;;;10327075;28;20227;-77
2022/10/16 21:56:20;;;;;;;9.03;5.30;;;16.70;99.90;;;;;;10328000;28;20222;-77
2022/10/16 22:01:24;;;;;;;8.00;5.20;;;16.60;99.90;;;;;;10329042;28;20242;-76
2022/10/16 22:06:28;;;;;;;10.00;5.60;;;16.60;99.90;;;;;;10328466;28;20227;-77
2022/10/16 22:11:35;;;;;;;7.20;6.37;;;16.50;99.90;;;;;;10328094;28;20241;-76
2022/10/16 22:16:38;;;;;;;17.03;7.50;;;16.60;99.90;;;;;;10327160;28;20297;-77
2022/10/16 22:21:41;;;;;;;26.23;14.20;;;16.50;99.90;;;;;;10326355;28;20227;-77
2022/10/16 22:26:45;;;;;;;8.13;5.73;;;16.50;99.90;;;;;;10340794;28;20254;-77
2022/10/16 22:31:51;;;;;;;33.20;19.37;;;16.50;99.90;;;;;;10351024;28;20215;-77
2022/10/16 22:36:53;;;;;;;17.57;9.87;;;16.40;99.90;;;;;;10356182;28;20206;-77
2022/10/16 22:41:56;;;;;;;11.70;10.33;;;16.40;99.90;;;;;;10359716;28;20218;-78
2022/10/16 22:46:58;;;;;;;11.70;9.87;;;16.30;99.90;;;;;;10346416;28;20199;-77
2022/10/16 22:52:00;;;;;;;17.20;8.70;;;16.30;99.90;;;;;;10348688;28;20241;-76
2022/10/16 22:57:04;;;;;;;15.10;7.90;;;16.30;99.90;;;;;;10355163;28;20215;-76
2022/10/16 23:02:06;;;;;;;10.43;6.97;;;16.30;99.90;;;;;;10354132;28;20305;-78
2022/10/16 23:07:08;;;;;;;10.20;9.00;;;16.30;99.90;;;;;;10347562;28;20195;-78
2022/10/16 23:12:11;;;;;;;6.60;6.00;;;16.30;99.90;;;;;;10334579;28;20594;-77
2022/10/16 23:17:13;;;;;;;14.93;6.80;;;16.30;99.90;;;;;;10334360;28;20286;-77
2022/10/16 23:22:15;;;;;;;12.27;7.30;;;16.20;99.90;;;;;;10334683;28;20215;-77
2022/10/16 23:27:19;;;;;;;8.90;6.90;;;16.20;99.90;;;;;;10334384;28;20187;-77
2022/10/16 23:32:21;;;;;;;12.23;6.13;;;16.10;99.90;;;;;;10333864;28;20235;-76
2022/10/16 23:37:23;;;;;;;6.63;5.27;;;16.10;99.90;;;;;;10332321;28;20206;-77
2022/10/16 23:42:26;;;;;;;8.67;5.17;;;16.10;99.90;;;;;;10333577;28;20219;-76
2022/10/16 23:47:28;;;;;;;12.90;9.60;;;16.10;99.90;;;;;;10333188;28;20222;-76
2022/10/16 23:52:30;;;;;;;8.57;7.77;;;16.10;99.90;;;;;;10316415;28;20253;-76
2022/10/16 23:57:34;;;;;;;8.20;7.40;;;16.00;99.90;;;;;;10332978;28;20208;-76
